sensor_id;sensor_type;location;lat;lon;timestamp;P1;durP1;ratioP1;P2;durP2;ratioP2
3993;SDS011;2011;48.238;13.948;2024-02-26T00:02:14;139.03;;;27.87;;
3993;SDS011;2011;48.238;13.948;2024-02-26T00:04:43;95.22;;;26.65;;
3993;SDS011;2011;48.238;13.948;2024-02-26T00:07:10;121.33;;;28.27;;
3993;SDS011;2011;48.238;13.948;2024-02-26T00:09:37;331.07;;;36.53;;
3993;SDS011;2011;48.238;13.948;2024-02-26T00:12:04;236.10;;;27.70;;
3993;SDS011;2011;48.238;13.948;2024-02-26T00:14:31;349.73;;;32.42;;
3993;SDS011;2011;48.238;13.948;2024-02-26T00:16:58;281.58;;;29.38;;
3993;SDS011;2011;48.238;13.948;2024-02-26T00:19:25;342.27;;;28.35;;
3993;SDS011;2011;48.238;13.948;2024-02-26T00:21:53;274.05;;;28.38;;
3993;SDS011;2011;48.238;13.948;2024-02-26T00:24:20;298.23;;;32.97;;
3993;SDS011;2011;48.238;13.948;2024-02-26T00:26:47;244.67;;;27.07;;
3993;SDS011;2011;48.238;13.948;2024-02-26T00:29:18;233.25;;;27.08;;
3993;SDS011;2011;48.238;13.948;2024-02-26T00:31:45;156.60;;;24.23;;
3993;SDS011;2011;48.238;13.948;2024-02-26T00:34:12;178.37;;;24.70;;
3993;SDS011;2011;48.238;13.948;2024-02-26T00:36:38;129.73;;;22.80;;
3993;SDS011;2011;48.238;13.948;2024-02-26T00:39:07;131.85;;;22.33;;
3993;SDS011;2011;48.238;13.948;2024-02-26T00:41:37;65.93;;;23.20;;
3993;SDS011;2011;48.238;13.948;2024-02-26T00:44:05;272.20;;;31.77;;
3993;SDS011;2011;48.238;13.948;2024-02-26T00:46:32;300.88;;;32.72;;
3993;SDS011;2011;48.238;13.948;2024-02-26T00:48:58;53.10;;;20.38;;
3993;SDS011;2011;48.238;13.948;2024-02-26T00:51:26;361.83;;;37.03;;
3993;SDS011;2011;48.238;13.948;2024-02-26T00:53:53;174.30;;;27.23;;
3993;SDS011;2011;48.238;13.948;2024-02-26T00:56:22;163.90;;;27.48;;
3993;SDS011;2011;48.238;13.948;2024-02-26T00:58:49;71.53;;;24.13;;
3993;SDS011;2011;48.238;13.948;2024-02-26T01:01:16;107.95;;;25.90;;
3993;SDS011;2011;48.238;13.948;2024-02-26T01:03:43;136.30;;;25.42;;
3993;SDS011;2011;48.238;13.948;2024-02-26T01:06:10;120.00;;;23.95;;
3993;SDS011;2011;48.238;13.948;2024-02-26T01:08:37;136.43;;;25.70;;
3993;SDS011;2011;48.238;13.948;2024-02-26T01:11:04;75.88;;;20.30;;
3993;SDS011;2011;48.238;13.948;2024-02-26T01:13:32;173.67;;;22.70;;
3993;SDS011;2011;48.238;13.948;2024-02-26T01:15:59;75.45;;;18.73;;
3993;SDS011;2011;48.238;13.948;2024-02-26T01:18:26;223.98;;;23.13;;
3993;SDS011;2011;48.238;13.948;2024-02-26T01:20:53;148.07;;;23.00;;
3993;SDS011;2011;48.238;13.948;2024-02-26T01:23:20;272.20;;;26.45;;
3993;SDS011;2011;48.238;13.948;2024-02-26T01:25:47;172.18;;;22.65;;
3993;SDS011;2011;48.238;13.948;2024-02-26T01:28:14;142.75;;;23.55;;
3993;SDS011;2011;48.238;13.948;2024-02-26T01:30:42;155.95;;;24.00;;
3993;SDS011;2011;48.238;13.948;2024-02-26T01:33:09;247.25;;;25.08;;
3993;SDS011;2011;48.238;13.948;2024-02-26T01:35:36;204.77;;;27.20;;
3993;SDS011;2011;48.238;13.948;2024-02-26T01:38:04;207.85;;;26.77;;
3993;SDS011;2011;48.238;13.948;2024-02-26T01:40:31;127.57;;;23.27;;
3993;SDS011;2011;48.238;13.948;2024-02-26T01:42:58;144.57;;;22.00;;
3993;SDS011;2011;48.238;13.948;2024-02-26T01:45:26;94.82;;;20.42;;
3993;SDS011;2011;48.238;13.948;2024-02-26T01:47:55;192.90;;;25.40;;
3993;SDS011;2011;48.238;13.948;2024-02-26T01:50:22;77.32;;;19.50;;
3993;SDS011;2011;48.238;13.948;2024-02-26T01:52:50;202.30;;;26.77;;
3993;SDS011;2011;48.238;13.948;2024-02-26T01:55:18;99.90;;;23.08;;
3993;SDS011;2011;48.238;13.948;2024-02-26T01:57:47;115.53;;;21.92;;
3993;SDS011;2011;48.238;13.948;2024-02-26T02:00:17;107.53;;;22.48;;
3993;SDS011;2011;48.238;13.948;2024-02-26T02:02:45;70.03;;;19.08;;
3993;SDS011;2011;48.238;13.948;2024-02-26T02:05:15;179.43;;;27.13;;
3993;SDS011;2011;48.238;13.948;2024-02-26T02:07:43;230.60;;;25.23;;
3993;SDS011;2011;48.238;13.948;2024-02-26T02:10:10;101.00;;;20.40;;
3993;SDS011;2011;48.238;13.948;2024-02-26T02:12:37;108.18;;;19.83;;
3993;SDS011;2011;48.238;13.948;2024-02-26T02:15:05;85.68;;;18.90;;
3993;SDS011;2011;48.238;13.948;2024-02-26T02:17:33;258.35;;;26.27;;
3993;SDS011;2011;48.238;13.948;2024-02-26T02:20:00;180.02;;;24.40;;
3993;SDS011;2011;48.238;13.948;2024-02-26T02:22:30;155.18;;;19.48;;
3993;SDS011;2011;48.238;13.948;2024-02-26T02:24:58;117.70;;;20.42;;
3993;SDS011;2011;48.238;13.948;2024-02-26T02:27:26;241.85;;;21.80;;
3993;SDS011;2011;48.238;13.948;2024-02-26T02:29:53;244.98;;;21.83;;
3993;SDS011;2011;48.238;13.948;2024-02-26T02:32:20;655.25;;;48.08;;
3993;SDS011;2011;48.238;13.948;2024-02-26T02:34:49;318.60;;;25.95;;
3993;SDS011;2011;48.238;13.948;2024-02-26T02:37:16;431.65;;;32.33;;
3993;SDS011;2011;48.238;13.948;2024-02-26T02:39:44;496.05;;;33.97;;
3993;SDS011;2011;48.238;13.948;2024-02-26T02:42:11;305.38;;;24.63;;
3993;SDS011;2011;48.238;13.948;2024-02-26T02:44:39;251.07;;;25.17;;
3993;SDS011;2011;48.238;13.948;2024-02-26T02:47:06;347.92;;;27.60;;
3993;SDS011;2011;48.238;13.948;2024-02-26T02:49:32;195.15;;;22.83;;
3993;SDS011;2011;48.238;13.948;2024-02-26T02:51:59;305.77;;;22.42;;
3993;SDS011;2011;48.238;13.948;2024-02-26T02:54:26;292.10;;;22.40;;
3993;SDS011;2011;48.238;13.948;2024-02-26T02:56:55;285.42;;;22.65;;
3993;SDS011;2011;48.238;13.948;2024-02-26T02:59:21;544.13;;;37.22;;
3993;SDS011;2011;48.238;13.948;2024-02-26T03:01:48;138.23;;;20.60;;
3993;SDS011;2011;48.238;13.948;2024-02-26T03:04:15;215.48;;;25.40;;
3993;SDS011;2011;48.238;13.948;2024-02-26T03:06:42;120.35;;;20.05;;
3993;SDS011;2011;48.238;13.948;2024-02-26T03:09:09;137.45;;;21.60;;
3993;SDS011;2011;48.238;13.948;2024-02-26T03:11:36;88.38;;;17.90;;
3993;SDS011;2011;48.238;13.948;2024-02-26T03:14:05;76.63;;;18.08;;
3993;SDS011;2011;48.238;13.948;2024-02-26T03:16:32;79.35;;;19.88;;
3993;SDS011;2011;48.238;13.948;2024-02-26T03:18:59;515.28;;;36.50;;
3993;SDS011;2011;48.238;13.948;2024-02-26T03:21:26;439.48;;;37.70;;
3993;SDS011;2011;48.238;13.948;2024-02-26T03:23:53;132.23;;;19.02;;
3993;SDS011;2011;48.238;13.948;2024-02-26T03:26:20;122.57;;;21.30;;
3993;SDS011;2011;48.238;13.948;2024-02-26T03:28:47;206.88;;;20.77;;
3993;SDS011;2011;48.238;13.948;2024-02-26T03:31:16;167.77;;;22.17;;
3993;SDS011;2011;48.238;13.948;2024-02-26T03:33:42;553.25;;;40.38;;
3993;SDS011;2011;48.238;13.948;2024-02-26T03:36:09;427.58;;;26.50;;
3993;SDS011;2011;48.238;13.948;2024-02-26T03:38:36;266.48;;;23.90;;
3993;SDS011;2011;48.238;13.948;2024-02-26T03:41:04;838.58;;;59.03;;
3993;SDS011;2011;48.238;13.948;2024-02-26T03:43:29;312.40;;;27.70;;
3993;SDS011;2011;48.238;13.948;2024-02-26T03:45:56;366.08;;;27.85;;
3993;SDS011;2011;48.238;13.948;2024-02-26T03:48:25;401.33;;;28.67;;
3993;SDS011;2011;48.238;13.948;2024-02-26T03:50:52;391.20;;;31.10;;
3993;SDS011;2011;48.238;13.948;2024-02-26T03:53:18;311.55;;;25.02;;
3993;SDS011;2011;48.238;13.948;2024-02-26T03:55:45;341.05;;;25.40;;
3993;SDS011;2011;48.238;13.948;2024-02-26T03:58:12;443.38;;;27.52;;
3993;SDS011;2011;48.238;13.948;2024-02-26T04:00:39;319.25;;;21.15;;
3993;SDS011;2011;48.238;13.948;2024-02-26T04:03:06;178.45;;;19.60;;
3993;SDS011;2011;48.238;13.948;2024-02-26T04:05:35;176.70;;;21.05;;
3993;SDS011;2011;48.238;13.948;2024-02-26T04:08:01;288.85;;;22.70;;
3993;SDS011;2011;48.238;13.948;2024-02-26T04:10:29;162.15;;;21.58;;
3993;SDS011;2011;48.238;13.948;2024-02-26T04:12:56;165.98;;;19.48;;
3993;SDS011;2011;48.238;13.948;2024-02-26T04:15:23;209.30;;;22.90;;
3993;SDS011;2011;48.238;13.948;2024-02-26T04:17:50;128.32;;;20.23;;
3993;SDS011;2011;48.238;13.948;2024-02-26T04:20:17;505.58;;;38.00;;
3993;SDS011;2011;48.238;13.948;2024-02-26T04:22:45;333.38;;;26.83;;
3993;SDS011;2011;48.238;13.948;2024-02-26T04:25:12;142.30;;;21.33;;
3993;SDS011;2011;48.238;13.948;2024-02-26T04:27:39;190.60;;;21.88;;
3993;SDS011;2011;48.238;13.948;2024-02-26T04:30:06;251.85;;;22.98;;
3993;SDS011;2011;48.238;13.948;2024-02-26T04:32:34;365.58;;;27.98;;
3993;SDS011;2011;48.238;13.948;2024-02-26T04:35:01;359.38;;;26.95;;
3993;SDS011;2011;48.238;13.948;2024-02-26T04:37:28;292.50;;;23.25;;
3993;SDS011;2011;48.238;13.948;2024-02-26T04:39:58;341.70;;;25.85;;
3993;SDS011;2011;48.238;13.948;2024-02-26T04:42:26;208.35;;;23.65;;
3993;SDS011;2011;48.238;13.948;2024-02-26T04:44:52;257.48;;;22.10;;
3993;SDS011;2011;48.238;13.948;2024-02-26T04:47:20;266.88;;;25.45;;
3993;SDS011;2011;48.238;13.948;2024-02-26T04:49:47;377.25;;;29.02;;
3993;SDS011;2011;48.238;13.948;2024-02-26T04:52:15;484.95;;;40.17;;
3993;SDS011;2011;48.238;13.948;2024-02-26T04:54:42;123.85;;;18.70;;
3993;SDS011;2011;48.238;13.948;2024-02-26T04:57:10;36.55;;;15.18;;
3993;SDS011;2011;48.238;13.948;2024-02-26T04:59:37;337.83;;;28.42;;
3993;SDS011;2011;48.238;13.948;2024-02-26T05:02:05;131.52;;;19.08;;
3993;SDS011;2011;48.238;13.948;2024-02-26T05:04:32;112.85;;;17.63;;
3993;SDS011;2011;48.238;13.948;2024-02-26T05:06:59;170.27;;;19.50;;
3993;SDS011;2011;48.238;13.948;2024-02-26T05:09:26;192.02;;;18.27;;
3993;SDS011;2011;48.238;13.948;2024-02-26T05:11:53;185.60;;;19.85;;
3993;SDS011;2011;48.238;13.948;2024-02-26T05:14:21;184.05;;;17.75;;
3993;SDS011;2011;48.238;13.948;2024-02-26T05:16:48;188.52;;;19.48;;
3993;SDS011;2011;48.238;13.948;2024-02-26T05:19:15;417.05;;;26.23;;
3993;SDS011;2011;48.238;13.948;2024-02-26T05:21:42;357.58;;;24.45;;
3993;SDS011;2011;48.238;13.948;2024-02-26T05:24:10;299.70;;;21.67;;
3993;SDS011;2011;48.238;13.948;2024-02-26T05:26:36;207.05;;;18.33;;
3993;SDS011;2011;48.238;13.948;2024-02-26T05:29:03;99.97;;;17.50;;
3993;SDS011;2011;48.238;13.948;2024-02-26T05:31:32;140.50;;;19.42;;
3993;SDS011;2011;48.238;13.948;2024-02-26T05:33:58;212.55;;;18.00;;
3993;SDS011;2011;48.238;13.948;2024-02-26T05:36:25;292.27;;;19.85;;
3993;SDS011;2011;48.238;13.948;2024-02-26T05:38:53;232.75;;;22.30;;
3993;SDS011;2011;48.238;13.948;2024-02-26T05:41:21;137.18;;;17.98;;
3993;SDS011;2011;48.238;13.948;2024-02-26T05:43:51;694.97;;;50.25;;
3993;SDS011;2011;48.238;13.948;2024-02-26T05:46:18;426.58;;;30.05;;
3993;SDS011;2011;48.238;13.948;2024-02-26T05:48:46;261.05;;;21.23;;
3993;SDS011;2011;48.238;13.948;2024-02-26T05:51:14;44.08;;;14.73;;
3993;SDS011;2011;48.238;13.948;2024-02-26T05:53:41;104.38;;;16.48;;
3993;SDS011;2011;48.238;13.948;2024-02-26T05:56:08;82.57;;;14.15;;
3993;SDS011;2011;48.238;13.948;2024-02-26T05:58:35;195.10;;;19.77;;
3993;SDS011;2011;48.238;13.948;2024-02-26T06:01:03;295.52;;;23.35;;
3993;SDS011;2011;48.238;13.948;2024-02-26T06:03:30;251.73;;;19.60;;
3993;SDS011;2011;48.238;13.948;2024-02-26T06:05:59;171.55;;;17.35;;
3993;SDS011;2011;48.238;13.948;2024-02-26T06:08:25;146.88;;;17.08;;
3993;SDS011;2011;48.238;13.948;2024-02-26T06:10:52;223.15;;;22.05;;
3993;SDS011;2011;48.238;13.948;2024-02-26T06:13:19;413.48;;;32.03;;
3993;SDS011;2011;48.238;13.948;2024-02-26T06:15:46;131.70;;;16.40;;
3993;SDS011;2011;48.238;13.948;2024-02-26T06:18:13;204.10;;;18.90;;
3993;SDS011;2011;48.238;13.948;2024-02-26T06:20:41;186.07;;;20.02;;
3993;SDS011;2011;48.238;13.948;2024-02-26T06:23:09;188.15;;;18.55;;
3993;SDS011;2011;48.238;13.948;2024-02-26T06:25:36;286.67;;;24.33;;
3993;SDS011;2011;48.238;13.948;2024-02-26T06:28:03;115.55;;;19.17;;
3993;SDS011;2011;48.238;13.948;2024-02-26T06:30:30;356.08;;;25.42;;
3993;SDS011;2011;48.238;13.948;2024-02-26T06:32:57;311.75;;;23.30;;
3993;SDS011;2011;48.238;13.948;2024-02-26T06:35:24;329.83;;;22.92;;
3993;SDS011;2011;48.238;13.948;2024-02-26T06:37:51;300.90;;;20.73;;
3993;SDS011;2011;48.238;13.948;2024-02-26T06:40:19;440.23;;;37.65;;
3993;SDS011;2011;48.238;13.948;2024-02-26T06:42:46;221.88;;;24.42;;
3993;SDS011;2011;48.238;13.948;2024-02-26T06:45:15;124.03;;;20.58;;
3993;SDS011;2011;48.238;13.948;2024-02-26T06:47:42;331.45;;;27.92;;
3993;SDS011;2011;48.238;13.948;2024-02-26T06:50:11;390.02;;;26.48;;
3993;SDS011;2011;48.238;13.948;2024-02-26T06:52:38;317.52;;;24.40;;
3993;SDS011;2011;48.238;13.948;2024-02-26T06:55:05;161.60;;;18.27;;
3993;SDS011;2011;48.238;13.948;2024-02-26T06:57:34;241.68;;;27.75;;
3993;SDS011;2011;48.238;13.948;2024-02-26T07:00:02;414.40;;;25.08;;
3993;SDS011;2011;48.238;13.948;2024-02-26T07:02:29;541.60;;;41.58;;
3993;SDS011;2011;48.238;13.948;2024-02-26T07:04:56;125.22;;;16.10;;
3993;SDS011;2011;48.238;13.948;2024-02-26T07:07:23;219.13;;;21.85;;
3993;SDS011;2011;48.238;13.948;2024-02-26T07:09:50;194.23;;;18.15;;
3993;SDS011;2011;48.238;13.948;2024-02-26T07:12:17;267.67;;;21.30;;
3993;SDS011;2011;48.238;13.948;2024-02-26T07:14:47;126.38;;;19.00;;
3993;SDS011;2011;48.238;13.948;2024-02-26T07:17:15;268.35;;;19.25;;
3993;SDS011;2011;48.238;13.948;2024-02-26T07:19:42;352.83;;;34.22;;
3993;SDS011;2011;48.238;13.948;2024-02-26T07:22:09;262.58;;;22.75;;
3993;SDS011;2011;48.238;13.948;2024-02-26T07:24:36;319.73;;;25.25;;
3993;SDS011;2011;48.238;13.948;2024-02-26T07:27:03;434.40;;;33.13;;
3993;SDS011;2011;48.238;13.948;2024-02-26T07:29:30;247.90;;;30.45;;
3993;SDS011;2011;48.238;13.948;2024-02-26T07:31:59;253.95;;;25.58;;
3993;SDS011;2011;48.238;13.948;2024-02-26T07:34:26;173.13;;;19.42;;
3993;SDS011;2011;48.238;13.948;2024-02-26T07:36:54;143.10;;;19.77;;
3993;SDS011;2011;48.238;13.948;2024-02-26T07:39:21;125.68;;;17.02;;
3993;SDS011;2011;48.238;13.948;2024-02-26T07:41:48;398.73;;;37.17;;
3993;SDS011;2011;48.238;13.948;2024-02-26T07:44:17;73.63;;;18.15;;
3993;SDS011;2011;48.238;13.948;2024-02-26T07:46:44;161.52;;;21.33;;
3993;SDS011;2011;48.238;13.948;2024-02-26T07:49:12;238.52;;;23.45;;
3993;SDS011;2011;48.238;13.948;2024-02-26T07:51:40;364.50;;;26.92;;
3993;SDS011;2011;48.238;13.948;2024-02-26T07:54:07;284.58;;;23.17;;
3993;SDS011;2011;48.238;13.948;2024-02-26T07:56:34;414.17;;;26.25;;
3993;SDS011;2011;48.238;13.948;2024-02-26T07:59:00;197.90;;;23.05;;
3993;SDS011;2011;48.238;13.948;2024-02-26T08:01:27;303.95;;;23.67;;
3993;SDS011;2011;48.238;13.948;2024-02-26T08:03:54;345.40;;;24.83;;
3993;SDS011;2011;48.238;13.948;2024-02-26T08:06:23;333.85;;;28.77;;
3993;SDS011;2011;48.238;13.948;2024-02-26T08:08:50;766.10;;;62.83;;
3993;SDS011;2011;48.238;13.948;2024-02-26T08:11:17;51.97;;;14.80;;
3993;SDS011;2011;48.238;13.948;2024-02-26T08:13:44;108.55;;;17.33;;
3993;SDS011;2011;48.238;13.948;2024-02-26T08:16:11;75.25;;;14.98;;
3993;SDS011;2011;48.238;13.948;2024-02-26T08:18:38;69.70;;;17.25;;
3993;SDS011;2011;48.238;13.948;2024-02-26T08:21:05;36.53;;;15.38;;
3993;SDS011;2011;48.238;13.948;2024-02-26T08:23:35;126.85;;;18.30;;
3993;SDS011;2011;48.238;13.948;2024-02-26T08:26:04;138.98;;;19.35;;
3993;SDS011;2011;48.238;13.948;2024-02-26T08:28:36;77.20;;;17.25;;
3993;SDS011;2011;48.238;13.948;2024-02-26T08:31:03;82.47;;;20.00;;
3993;SDS011;2011;48.238;13.948;2024-02-26T08:33:30;59.77;;;15.03;;
3993;SDS011;2011;48.238;13.948;2024-02-26T08:35:59;211.60;;;23.80;;
3993;SDS011;2011;48.238;13.948;2024-02-26T08:38:30;173.80;;;19.47;;
3993;SDS011;2011;48.238;13.948;2024-02-26T08:40:58;182.83;;;24.50;;
3993;SDS011;2011;48.238;13.948;2024-02-26T08:43:25;355.17;;;30.23;;
3993;SDS011;2011;48.238;13.948;2024-02-26T08:45:52;138.13;;;20.90;;
3993;SDS011;2011;48.238;13.948;2024-02-26T08:48:19;60.93;;;16.43;;
3993;SDS011;2011;48.238;13.948;2024-02-26T08:50:46;70.70;;;15.57;;
3993;SDS011;2011;48.238;13.948;2024-02-26T08:53:13;33.73;;;13.40;;
3993;SDS011;2011;48.238;13.948;2024-02-26T08:55:40;26.63;;;13.57;;
3993;SDS011;2011;48.238;13.948;2024-02-26T08:58:09;115.73;;;18.13;;
3993;SDS011;2011;48.238;13.948;2024-02-26T09:00:36;77.33;;;16.73;;
3993;SDS011;2011;48.238;13.948;2024-02-26T09:03:03;64.47;;;16.40;;
3993;SDS011;2011;48.238;13.948;2024-02-26T09:05:30;162.60;;;19.77;;
3993;SDS011;2011;48.238;13.948;2024-02-26T09:07:57;95.50;;;17.67;;
3993;SDS011;2011;48.238;13.948;2024-02-26T09:10:25;66.37;;;19.03;;
3993;SDS011;2011;48.238;13.948;2024-02-26T09:12:52;60.87;;;18.20;;
3993;SDS011;2011;48.238;13.948;2024-02-26T09:15:21;31.53;;;15.37;;
3993;SDS011;2011;48.238;13.948;2024-02-26T09:17:48;31.57;;;16.80;;
3993;SDS011;2011;48.238;13.948;2024-02-26T09:20:17;32.40;;;15.57;;
3993;SDS011;2011;48.238;13.948;2024-02-26T09:22:45;24.77;;;14.90;;
3993;SDS011;2011;48.238;13.948;2024-02-26T09:25:12;84.10;;;19.63;;
3993;SDS011;2011;48.238;13.948;2024-02-26T09:27:40;528.70;;;42.40;;
3993;SDS011;2011;48.238;13.948;2024-02-26T09:30:09;19.63;;;12.50;;
3993;SDS011;2011;48.238;13.948;2024-02-26T09:32:38;22.23;;;12.83;;
3993;SDS011;2011;48.238;13.948;2024-02-26T09:35:05;27.70;;;14.27;;
3993;SDS011;2011;48.238;13.948;2024-02-26T09:37:33;21.97;;;13.67;;
3993;SDS011;2011;48.238;13.948;2024-02-26T09:40:02;29.33;;;13.50;;
3993;SDS011;2011;48.238;13.948;2024-02-26T09:42:29;18.30;;;12.00;;
3993;SDS011;2011;48.238;13.948;2024-02-26T09:44:57;21.23;;;12.60;;
3993;SDS011;2011;48.238;13.948;2024-02-26T09:47:28;18.40;;;12.40;;
3993;SDS011;2011;48.238;13.948;2024-02-26T09:49:59;18.33;;;10.87;;
3993;SDS011;2011;48.238;13.948;2024-02-26T09:52:27;14.83;;;10.60;;
3993;SDS011;2011;48.238;13.948;2024-02-26T09:54:57;18.27;;;10.90;;
3993;SDS011;2011;48.238;13.948;2024-02-26T09:57:24;15.70;;;10.40;;
3993;SDS011;2011;48.238;13.948;2024-02-26T09:59:53;16.97;;;10.87;;
3993;SDS011;2011;48.238;13.948;2024-02-26T10:02:22;16.90;;;10.30;;
3993;SDS011;2011;48.238;13.948;2024-02-26T10:04:49;16.57;;;12.03;;
3993;SDS011;2011;48.238;13.948;2024-02-26T10:07:20;18.70;;;12.63;;
3993;SDS011;2011;48.238;13.948;2024-02-26T10:09:47;14.87;;;10.50;;
3993;SDS011;2011;48.238;13.948;2024-02-26T10:12:14;13.80;;;9.47;;
3993;SDS011;2011;48.238;13.948;2024-02-26T10:14:42;14.67;;;10.20;;
3993;SDS011;2011;48.238;13.948;2024-02-26T10:17:09;16.53;;;9.30;;
3993;SDS011;2011;48.238;13.948;2024-02-26T10:19:37;14.80;;;9.83;;
3993;SDS011;2011;48.238;13.948;2024-02-26T10:22:04;13.43;;;10.23;;
3993;SDS011;2011;48.238;13.948;2024-02-26T10:24:32;14.13;;;9.67;;
3993;SDS011;2011;48.238;13.948;2024-02-26T10:26:59;14.17;;;10.00;;
3993;SDS011;2011;48.238;13.948;2024-02-26T10:29:27;13.23;;;8.77;;
3993;SDS011;2011;48.238;13.948;2024-02-26T10:31:54;13.23;;;9.67;;
3993;SDS011;2011;48.238;13.948;2024-02-26T10:34:22;14.70;;;9.77;;
3993;SDS011;2011;48.238;13.948;2024-02-26T10:36:50;11.27;;;8.40;;
3993;SDS011;2011;48.238;13.948;2024-02-26T10:39:17;13.47;;;9.20;;
3993;SDS011;2011;48.238;13.948;2024-02-26T10:41:45;15.30;;;9.50;;
3993;SDS011;2011;48.238;13.948;2024-02-26T10:44:12;11.23;;;8.00;;
3993;SDS011;2011;48.238;13.948;2024-02-26T10:46:40;15.97;;;10.57;;
3993;SDS011;2011;48.238;13.948;2024-02-26T10:49:12;14.93;;;10.17;;
3993;SDS011;2011;48.238;13.948;2024-02-26T10:51:40;14.50;;;9.93;;
3993;SDS011;2011;48.238;13.948;2024-02-26T10:54:10;17.57;;;11.00;;
3993;SDS011;2011;48.238;13.948;2024-02-26T10:56:41;14.40;;;9.60;;
3993;SDS011;2011;48.238;13.948;2024-02-26T10:59:10;13.20;;;9.60;;
3993;SDS011;2011;48.238;13.948;2024-02-26T11:01:38;10.47;;;7.87;;
3993;SDS011;2011;48.238;13.948;2024-02-26T11:04:06;13.40;;;8.87;;
3993;SDS011;2011;48.238;13.948;2024-02-26T11:06:36;11.63;;;8.43;;
3993;SDS011;2011;48.238;13.948;2024-02-26T11:09:04;15.23;;;8.90;;
3993;SDS011;2011;48.238;13.948;2024-02-26T11:11:32;15.33;;;9.70;;
3993;SDS011;2011;48.238;13.948;2024-02-26T11:14:01;13.77;;;9.00;;
3993;SDS011;2011;48.238;13.948;2024-02-26T11:16:30;13.50;;;7.97;;
3993;SDS011;2011;48.238;13.948;2024-02-26T11:18:58;15.43;;;9.07;;
3993;SDS011;2011;48.238;13.948;2024-02-26T11:21:27;14.30;;;8.37;;
3993;SDS011;2011;48.238;13.948;2024-02-26T11:24:03;15.67;;;8.90;;
3993;SDS011;2011;48.238;13.948;2024-02-26T11:26:32;14.63;;;9.13;;
3993;SDS011;2011;48.238;13.948;2024-02-26T11:29:00;12.50;;;8.67;;
3993;SDS011;2011;48.238;13.948;2024-02-26T11:31:28;13.33;;;7.93;;
3993;SDS011;2011;48.238;13.948;2024-02-26T11:33:57;9.67;;;6.90;;
3993;SDS011;2011;48.238;13.948;2024-02-26T11:36:24;14.67;;;7.93;;
3993;SDS011;2011;48.238;13.948;2024-02-26T11:38:51;11.10;;;7.47;;
3993;SDS011;2011;48.238;13.948;2024-02-26T11:41:18;11.03;;;6.97;;
3993;SDS011;2011;48.238;13.948;2024-02-26T11:43:49;9.70;;;7.00;;
3993;SDS011;2011;48.238;13.948;2024-02-26T11:46:27;11.03;;;7.73;;
3993;SDS011;2011;48.238;13.948;2024-02-26T11:48:58;10.97;;;7.43;;
3993;SDS011;2011;48.238;13.948;2024-02-26T11:51:26;11.97;;;7.60;;
3993;SDS011;2011;48.238;13.948;2024-02-26T11:53:54;9.40;;;6.43;;
3993;SDS011;2011;48.238;13.948;2024-02-26T11:56:23;12.33;;;6.80;;
3993;SDS011;2011;48.238;13.948;2024-02-26T11:59:03;15.10;;;6.97;;
3993;SDS011;2011;48.238;13.948;2024-02-26T12:01:41;8.17;;;5.57;;
3993;SDS011;2011;48.238;13.948;2024-02-26T12:04:14;6.77;;;4.00;;
3993;SDS011;2011;48.238;13.948;2024-02-26T12:06:46;8.83;;;4.57;;
3993;SDS011;2011;48.238;13.948;2024-02-26T12:09:32;7.87;;;4.77;;
3993;SDS011;2011;48.238;13.948;2024-02-26T12:12:00;8.77;;;4.60;;
3993;SDS011;2011;48.238;13.948;2024-02-26T12:14:28;10.80;;;5.80;;
3993;SDS011;2011;48.238;13.948;2024-02-26T12:16:55;8.03;;;5.17;;
3993;SDS011;2011;48.238;13.948;2024-02-26T12:19:24;8.27;;;4.77;;
3993;SDS011;2011;48.238;13.948;2024-02-26T12:21:51;12.13;;;6.00;;
3993;SDS011;2011;48.238;13.948;2024-02-26T12:24:20;7.50;;;5.13;;
3993;SDS011;2011;48.238;13.948;2024-02-26T12:26:47;7.47;;;5.20;;
3993;SDS011;2011;48.238;13.948;2024-02-26T12:29:14;8.20;;;5.07;;
3993;SDS011;2011;48.238;13.948;2024-02-26T12:31:41;11.43;;;5.60;;
3993;SDS011;2011;48.238;13.948;2024-02-26T12:34:09;11.53;;;4.70;;
3993;SDS011;2011;48.238;13.948;2024-02-26T12:36:37;9.30;;;4.87;;
3993;SDS011;2011;48.238;13.948;2024-02-26T12:39:05;10.33;;;5.37;;
3993;SDS011;2011;48.238;13.948;2024-02-26T12:41:34;8.37;;;5.30;;
3993;SDS011;2011;48.238;13.948;2024-02-26T12:44:01;12.10;;;4.70;;
3993;SDS011;2011;48.238;13.948;2024-02-26T12:46:28;11.40;;;5.00;;
3993;SDS011;2011;48.238;13.948;2024-02-26T12:48:56;9.20;;;5.10;;
3993;SDS011;2011;48.238;13.948;2024-02-26T12:51:24;9.03;;;5.10;;
3993;SDS011;2011;48.238;13.948;2024-02-26T12:53:53;8.23;;;4.67;;
3993;SDS011;2011;48.238;13.948;2024-02-26T12:56:21;8.50;;;5.20;;
3993;SDS011;2011;48.238;13.948;2024-02-26T12:58:49;9.50;;;4.87;;
3993;SDS011;2011;48.238;13.948;2024-02-26T13:01:18;10.23;;;5.00;;
3993;SDS011;2011;48.238;13.948;2024-02-26T13:03:49;7.33;;;4.27;;
3993;SDS011;2011;48.238;13.948;2024-02-26T13:06:16;7.43;;;4.83;;
3993;SDS011;2011;48.238;13.948;2024-02-26T13:08:44;7.60;;;5.17;;
3993;SDS011;2011;48.238;13.948;2024-02-26T13:11:13;11.13;;;6.10;;
3993;SDS011;2011;48.238;13.948;2024-02-26T13:13:40;11.87;;;6.00;;
3993;SDS011;2011;48.238;13.948;2024-02-26T13:16:09;23.03;;;6.87;;
3993;SDS011;2011;48.238;13.948;2024-02-26T13:18:40;20.10;;;7.00;;
3993;SDS011;2011;48.238;13.948;2024-02-26T13:21:08;10.80;;;6.80;;
3993;SDS011;2011;48.238;13.948;2024-02-26T13:23:36;10.80;;;6.97;;
3993;SDS011;2011;48.238;13.948;2024-02-26T13:26:04;9.23;;;6.03;;
3993;SDS011;2011;48.238;13.948;2024-02-26T13:28:32;9.47;;;6.00;;
3993;SDS011;2011;48.238;13.948;2024-02-26T13:31:00;9.97;;;4.70;;
3993;SDS011;2011;48.238;13.948;2024-02-26T13:33:29;8.50;;;5.63;;
3993;SDS011;2011;48.238;13.948;2024-02-26T13:35:57;9.83;;;5.80;;
3993;SDS011;2011;48.238;13.948;2024-02-26T13:38:25;12.50;;;6.33;;
3993;SDS011;2011;48.238;13.948;2024-02-26T13:40:53;9.53;;;6.57;;
3993;SDS011;2011;48.238;13.948;2024-02-26T13:43:21;12.63;;;6.20;;
3993;SDS011;2011;48.238;13.948;2024-02-26T13:45:49;11.40;;;6.30;;
3993;SDS011;2011;48.238;13.948;2024-02-26T13:48:16;10.47;;;5.83;;
3993;SDS011;2011;48.238;13.948;2024-02-26T13:50:43;12.20;;;6.43;;
3993;SDS011;2011;48.238;13.948;2024-02-26T13:53:11;13.27;;;6.57;;
3993;SDS011;2011;48.238;13.948;2024-02-26T13:55:39;10.53;;;6.20;;
3993;SDS011;2011;48.238;13.948;2024-02-26T13:58:07;10.20;;;6.30;;
3993;SDS011;2011;48.238;13.948;2024-02-26T14:00:37;10.83;;;6.53;;
3993;SDS011;2011;48.238;13.948;2024-02-26T14:03:05;9.77;;;5.90;;
3993;SDS011;2011;48.238;13.948;2024-02-26T14:05:33;16.70;;;6.40;;
3993;SDS011;2011;48.238;13.948;2024-02-26T14:08:00;14.00;;;7.50;;
3993;SDS011;2011;48.238;13.948;2024-02-26T14:10:27;12.77;;;5.17;;
3993;SDS011;2011;48.238;13.948;2024-02-26T14:12:54;9.27;;;5.23;;
3993;SDS011;2011;48.238;13.948;2024-02-26T14:15:21;8.07;;;4.73;;
3993;SDS011;2011;48.238;13.948;2024-02-26T14:17:49;8.50;;;5.30;;
3993;SDS011;2011;48.238;13.948;2024-02-26T14:20:21;8.17;;;4.50;;
3993;SDS011;2011;48.238;13.948;2024-02-26T14:22:48;9.00;;;4.97;;
3993;SDS011;2011;48.238;13.948;2024-02-26T14:25:15;9.30;;;5.00;;
3993;SDS011;2011;48.238;13.948;2024-02-26T14:27:42;10.30;;;4.53;;
3993;SDS011;2011;48.238;13.948;2024-02-26T14:30:10;21.60;;;4.63;;
3993;SDS011;2011;48.238;13.948;2024-02-26T14:32:37;8.50;;;5.00;;
3993;SDS011;2011;48.238;13.948;2024-02-26T14:35:05;12.73;;;4.93;;
3993;SDS011;2011;48.238;13.948;2024-02-26T14:37:35;8.30;;;4.63;;